createdAt,value
2023-01-02T00:01:30.717Z,7.50
2023-01-02T00:03:58.840Z,7.56
2023-01-02T00:06:26.492Z,7.60
2023-01-02T00:08:53.830Z,7.58
2023-01-02T00:11:20.939Z,7.63
2023-01-02T00:13:47.947Z,7.61
2023-01-02T00:16:15.120Z,7.60
2023-01-02T00:18:42.489Z,7.54
2023-01-02T00:21:09.790Z,7.55
2023-01-02T00:23:36.706Z,7.55
2023-01-02T00:26:07.476Z,7.47
2023-01-02T00:28:36.579Z,7.48
2023-01-02T00:31:13.260Z,7.47
2023-01-02T00:33:40.695Z,7.48
2023-01-02T00:36:12.533Z,7.53
2023-01-02T00:38:40.709Z,7.56
2023-01-02T00:41:08.148Z,7.59
2023-01-02T00:43:35.535Z,7.60
2023-01-02T00:46:06.299Z,7.60
2023-01-02T00:48:38.268Z,7.61
2023-01-02T00:51:05.554Z,7.61
2023-01-02T00:53:57.965Z,7.55
2023-01-02T00:56:25.754Z,7.57
2023-01-02T00:58:53.608Z,7.54
2023-01-02T01:01:21.832Z,7.54
2023-01-02T01:03:50.619Z,7.54
2023-01-02T01:06:18.896Z,7.51
2023-01-02T01:08:46.011Z,7.51
2023-01-02T01:11:16.057Z,7.47
2023-01-02T01:13:43.420Z,7.41
2023-01-02T01:16:16.510Z,7.40
2023-01-02T01:18:43.796Z,7.34
2023-01-02T01:21:16.056Z,7.29
2023-01-02T01:23:43.301Z,7.28
2023-01-02T01:26:12.595Z,7.20
2023-01-02T01:28:40.758Z,7.22
2023-01-02T01:31:14.510Z,7.24
2023-01-02T01:33:42.646Z,7.15
2023-01-02T01:36:15.350Z,7.17
2023-01-02T01:38:42.417Z,7.22
2023-01-02T01:41:11.402Z,7.19
2023-01-02T01:43:41.139Z,7.20
2023-01-02T01:46:14.760Z,7.22
2023-01-02T01:48:41.895Z,7.23
2023-01-02T01:51:08.966Z,7.23
2023-01-02T01:53:36.602Z,7.23
2023-01-02T01:56:07.106Z,7.22
2023-01-02T01:58:43.286Z,7.19
2023-01-02T02:01:16.378Z,7.19
2023-01-02T02:03:46.883Z,7.16
2023-01-02T02:06:14.463Z,7.15
2023-01-02T02:08:55.219Z,7.09
2023-01-02T02:11:22.753Z,7.13
2023-01-02T02:13:50.183Z,7.06
2023-01-02T02:16:17.171Z,7.12
2023-01-02T02:18:47.163Z,7.09
2023-01-02T02:21:46.541Z,7.14
2023-01-02T02:24:33.593Z,7.12
2023-01-02T02:27:12.352Z,7.09
2023-01-02T02:29:45.513Z,7.13
2023-01-02T02:32:40.412Z,7.14
2023-01-02T02:35:39.440Z,7.15
2023-01-02T02:38:29.536Z,7.14
2023-01-02T02:41:08.749Z,7.15
2023-01-02T02:43:38.582Z,7.11
2023-01-02T02:46:21.340Z,7.15
2023-01-02T02:49:07.054Z,7.14
2023-01-02T02:51:36.909Z,7.13
2023-01-02T02:54:15.725Z,7.14
2023-01-02T02:56:43.940Z,7.13
2023-01-02T02:59:12.586Z,7.09
2023-01-02T03:01:39.774Z,7.06
2023-01-02T03:04:17.323Z,7.02
2023-01-02T03:06:59.234Z,6.99
2023-01-02T03:09:57.845Z,6.90
2023-01-02T03:12:55.797Z,6.77
2023-01-02T03:16:00.950Z,6.63
2023-01-02T03:18:56.681Z,6.51
2023-01-02T03:21:32.660Z,6.37
2023-01-02T03:24:06.515Z,6.26
2023-01-02T03:26:36.764Z,6.19
2023-01-02T03:29:16.088Z,6.11
2023-01-02T03:31:48.283Z,6.07
2023-01-02T03:34:19.759Z,6.04
2023-01-02T03:36:51.820Z,6.04
2023-01-02T03:39:23.860Z,6.04
2023-01-02T03:41:59.688Z,6.03
2023-01-02T03:44:35.132Z,6.00
2023-01-02T03:47:29.762Z,5.95
2023-01-02T03:50:01.526Z,5.87
2023-01-02T03:52:28.600Z,5.80
2023-01-02T03:54:57.603Z,5.72
2023-01-02T03:57:39.734Z,5.66
2023-01-02T04:00:10.713Z,5.58
2023-01-02T04:03:07.703Z,5.50
2023-01-02T04:05:48.194Z,5.46
2023-01-02T04:08:57.746Z,5.39
2023-01-02T04:11:27.682Z,5.30
2023-01-02T04:13:59.954Z,5.25
2023-01-02T04:16:31.325Z,5.19
2023-01-02T04:19:07.515Z,5.11
2023-01-02T04:21:38.453Z,5.04
2023-01-02T04:24:19.913Z,4.99
2023-01-02T04:26:59.860Z,4.95
2023-01-02T04:29:27.036Z,4.89
2023-01-02T04:31:59.065Z,4.86
2023-01-02T04:34:28.709Z,4.83
2023-01-02T04:36:55.759Z,4.80
2023-01-02T04:39:24.719Z,4.79
2023-01-02T04:41:51.983Z,4.78
2023-01-02T04:44:19.108Z,4.75
2023-01-02T04:46:46.115Z,4.73
2023-01-02T04:49:13.074Z,4.72
2023-01-02T04:51:40.147Z,4.71
2023-01-02T04:54:12.249Z,4.70
2023-01-02T04:56:39.785Z,4.69
2023-01-02T04:59:06.958Z,4.72
2023-01-02T05:01:34.222Z,4.72
2023-01-02T05:04:01.207Z,4.75
2023-01-02T05:06:28.505Z,4.77
2023-01-02T05:08:55.783Z,4.77
2023-01-02T05:11:22.876Z,4.76
2023-01-02T05:13:50.081Z,4.74
2023-01-02T05:16:17.279Z,4.71
2023-01-02T05:18:44.619Z,4.68
2023-01-02T05:21:32.088Z,4.67
2023-01-02T05:24:01.870Z,4.67
2023-01-02T05:26:32.911Z,4.67
2023-01-02T05:29:00.420Z,4.73
2023-01-02T05:31:28.637Z,4.76
2023-01-02T05:33:57.901Z,4.78
2023-01-02T05:36:26.185Z,4.81
2023-01-02T05:38:54.476Z,4.84
2023-01-02T05:41:24.121Z,4.84
2023-01-02T05:43:51.740Z,4.83
2023-01-02T05:46:21.347Z,4.83
2023-01-02T05:48:48.917Z,4.82
2023-01-02T05:51:17.556Z,4.82
2023-01-02T05:53:44.812Z,4.79
2023-01-02T05:56:15.909Z,4.76
2023-01-02T05:58:47.154Z,4.70
2023-01-02T06:01:23.010Z,4.69
2023-01-02T06:03:52.272Z,4.72
2023-01-02T06:06:21.946Z,4.71
2023-01-02T06:08:49.055Z,4.72
2023-01-02T06:11:16.094Z,4.71
2023-01-02T06:13:43.430Z,4.72
2023-01-02T06:16:12.200Z,4.76
2023-01-02T06:18:40.581Z,4.80
2023-01-02T06:21:13.756Z,4.85
2023-01-02T06:23:42.158Z,4.90
2023-01-02T06:26:16.618Z,4.97
2023-01-02T06:28:44.817Z,5.05
2023-01-02T06:31:16.569Z,5.17
2023-01-02T06:33:44.575Z,5.27
2023-01-02T06:36:18.050Z,5.37
2023-01-02T06:38:46.007Z,5.46
2023-01-02T06:41:14.633Z,5.53
2023-01-02T06:43:47.026Z,5.62
2023-01-02T06:46:17.046Z,5.70
2023-01-02T06:48:44.503Z,5.77
2023-01-02T06:51:15.433Z,5.85
2023-01-02T06:53:43.650Z,5.96
2023-01-02T06:56:12.391Z,6.06
2023-01-02T06:58:40.331Z,6.16
2023-01-02T07:01:10.807Z,6.29
2023-01-02T07:03:38.186Z,6.43
2023-01-02T07:06:12.014Z,6.58
2023-01-02T07:08:39.999Z,6.77
2023-01-02T07:11:16.145Z,6.97
2023-01-02T07:13:46.150Z,7.18
2023-01-02T07:16:15.896Z,7.40
2023-01-02T07:18:43.777Z,7.64
2023-01-02T07:21:12.507Z,7.89
2023-01-02T07:23:39.793Z,8.08
2023-01-02T07:26:07.730Z,8.13
2023-01-02T07:28:36.161Z,8.27
2023-01-02T07:31:06.573Z,8.41
2023-01-02T07:33:34.252Z,8.57
2023-01-02T07:36:03.533Z,8.81
2023-01-02T07:38:31.006Z,9.22
2023-01-02T07:40:58.432Z,9.67
2023-01-02T07:43:25.719Z,10.05
2023-01-02T07:45:52.862Z,10.43
2023-01-02T07:48:20.986Z,10.75
2023-01-02T07:50:48.251Z,11.08
2023-01-02T07:53:15.421Z,11.44
2023-01-02T07:55:42.670Z,11.80
2023-01-02T07:58:09.891Z,12.25
2023-01-02T08:00:36.938Z,12.63
2023-01-02T08:03:04.382Z,12.96
2023-01-02T08:05:34.090Z,12.92
2023-01-02T08:08:01.304Z,13.10
2023-01-02T08:10:28.566Z,13.32
2023-01-02T08:12:57.564Z,13.57
2023-01-02T08:15:25.876Z,13.84
2023-01-02T08:17:53.431Z,14.09
2023-01-02T08:20:20.537Z,14.36
2023-01-02T08:22:47.792Z,14.56
2023-01-02T08:25:16.607Z,14.69
2023-01-02T08:27:44.113Z,14.73
2023-01-02T08:30:11.651Z,14.76
2023-01-02T08:32:39.800Z,15.08
2023-01-02T08:35:07.927Z,15.44
2023-01-02T08:37:35.570Z,15.83
2023-01-02T08:40:03.203Z,15.75
2023-01-02T08:42:32.330Z,15.51
2023-01-02T08:44:59.975Z,15.29
2023-01-02T08:47:27.084Z,15.28
2023-01-02T08:49:54.145Z,15.17
2023-01-02T08:52:22.155Z,15.32
2023-01-02T08:54:49.697Z,15.59
2023-01-02T08:57:16.997Z,15.81
2023-01-02T08:59:46.048Z,16.09
2023-01-02T09:02:15.207Z,16.55
2023-01-02T09:04:42.801Z,16.95
2023-01-02T09:07:10.325Z,17.19
2023-01-02T09:09:37.718Z,17.47
2023-01-02T09:12:06.587Z,17.60
2023-01-02T09:14:34.110Z,17.77
2023-01-02T09:17:01.995Z,18.00
2023-01-02T09:19:30.115Z,17.52
2023-01-02T09:21:57.544Z,17.17
2023-01-02T09:24:24.699Z,16.75
2023-01-02T09:26:52.341Z,16.48
2023-01-02T09:29:19.874Z,15.89
2023-01-02T09:31:47.643Z,15.71
2023-01-02T09:34:14.915Z,15.71
2023-01-02T09:36:42.482Z,16.07
2023-01-02T09:39:09.904Z,16.29
2023-01-02T09:41:40.162Z,16.70
2023-01-02T09:44:26.521Z,17.11
2023-01-02T09:47:29.808Z,17.65
2023-01-02T09:49:58.998Z,18.02
2023-01-02T09:52:34.269Z,18.28
2023-01-02T09:55:02.279Z,18.61
2023-01-02T09:57:29.744Z,18.86
2023-01-02T10:00:10.084Z,19.22
2023-01-02T10:03:15.469Z,19.55
2023-01-02T10:05:52.034Z,19.66
2023-01-02T10:08:35.729Z,19.82
2023-01-02T10:11:36.662Z,20.08
2023-01-02T10:14:23.978Z,20.33
2023-01-02T10:16:58.185Z,20.18
2023-01-02T10:19:42.933Z,20.22
2023-01-02T10:22:14.123Z,20.52
2023-01-02T10:24:47.962Z,20.35
2023-01-02T10:27:22.911Z,20.45
2023-01-02T10:30:18.058Z,20.05
2023-01-02T10:32:51.772Z,20.07
2023-01-02T10:35:43.298Z,20.08
2023-01-02T10:38:13.438Z,19.94
2023-01-02T10:40:44.681Z,19.83
2023-01-02T10:43:12.563Z,19.62
2023-01-02T10:45:40.051Z,19.53
2023-01-02T10:48:09.939Z,19.30
2023-01-02T10:50:42.613Z,19.21
2023-01-02T10:53:32.688Z,19.19
2023-01-02T10:56:05.347Z,19.31
2023-01-02T10:58:34.698Z,19.41
2023-01-02T11:01:19.723Z,19.58
2023-01-02T11:03:49.940Z,19.62
2023-01-02T11:06:35.145Z,19.73
2023-01-02T11:09:25.026Z,19.83
2023-01-02T11:11:58.404Z,19.94
2023-01-02T11:14:34.010Z,20.08
2023-01-02T11:17:21.144Z,20.30
2023-01-02T11:19:55.323Z,20.29
2023-01-02T11:22:36.077Z,20.36
2023-01-02T11:25:08.215Z,20.60
2023-01-02T11:27:41.959Z,20.77
2023-01-02T11:30:29.421Z,20.54
2023-01-02T11:33:07.947Z,20.36
2023-01-02T11:35:45.715Z,20.26
2023-01-02T11:38:29.711Z,20.08
2023-01-02T11:41:01.272Z,19.89
2023-01-02T11:43:48.897Z,19.73
2023-01-02T11:46:26.911Z,19.29
2023-01-02T11:49:01.809Z,19.06
2023-01-02T11:51:32.274Z,18.79
2023-01-02T11:54:03.147Z,18.72
2023-01-02T11:56:40.073Z,18.54
2023-01-02T11:59:27.590Z,18.65
2023-01-02T12:02:33.217Z,18.57
2023-01-02T12:05:00.993Z,18.38
2023-01-02T12:08:01.443Z,18.15
2023-01-02T12:10:39.360Z,17.79
2023-01-02T12:13:25.066Z,17.56
2023-01-02T12:16:19.869Z,17.17
2023-01-02T12:19:15.793Z,16.51
2023-01-02T12:22:23.313Z,16.26
2023-01-02T12:25:13.278Z,15.97
2023-01-02T12:27:58.753Z,15.75
2023-01-02T12:30:26.110Z,15.56
2023-01-02T12:33:11.642Z,15.45
2023-01-02T12:35:45.039Z,15.28
2023-01-02T12:38:26.183Z,15.07
2023-01-02T12:41:23.568Z,14.72
2023-01-02T12:44:13.261Z,14.24
2023-01-02T12:46:43.595Z,13.83
2023-01-02T12:49:36.001Z,13.43
2023-01-02T12:52:30.267Z,13.00
2023-01-02T12:55:16.008Z,12.78
2023-01-02T12:57:58.750Z,12.58
2023-01-02T13:00:32.174Z,12.34
2023-01-02T13:03:05.529Z,12.11
2023-01-02T13:05:40.532Z,11.97
2023-01-02T13:08:27.351Z,11.87
2023-01-02T13:10:59.563Z,11.81
2023-01-02T13:13:32.293Z,11.72
2023-01-02T13:16:20.708Z,11.69
2023-01-02T13:19:14.239Z,11.60
2023-01-02T13:21:53.879Z,11.55
2023-01-02T13:24:26.390Z,11.48
2023-01-02T13:26:56.879Z,11.43
2023-01-02T13:29:40.422Z,11.37
2023-01-02T13:32:11.150Z,11.29
2023-01-02T13:34:52.811Z,11.21
2023-01-02T13:37:26.008Z,11.11
2023-01-02T13:40:25.476Z,10.97
2023-01-02T13:43:03.921Z,10.79
2023-01-02T13:45:37.786Z,10.64
2023-01-02T13:48:18.160Z,10.47
2023-01-02T13:50:45.771Z,10.30
2023-01-02T13:53:12.814Z,10.12
2023-01-02T13:55:39.849Z,9.89
2023-01-02T13:58:13.355Z,9.71
2023-01-02T14:01:21.066Z,9.59
2023-01-02T14:03:50.318Z,9.43
2023-01-02T14:06:33.798Z,9.28
2023-01-02T14:09:16.119Z,9.18
2023-01-02T14:11:56.569Z,9.03
2023-01-02T14:14:38.374Z,8.92
2023-01-02T14:17:39.500Z,8.79
2023-01-02T14:20:18.891Z,8.69
2023-01-02T14:22:52.965Z,8.61
2023-01-02T14:25:22.022Z,8.53
2023-01-02T14:27:57.770Z,8.44
2023-01-02T14:30:32.941Z,8.37
2023-01-02T14:33:01.782Z,8.30
2023-01-02T14:35:37.908Z,8.22
2023-01-02T14:38:07.740Z,8.11
2023-01-02T14:40:39.017Z,8.01
2023-01-02T14:43:37.167Z,7.87
2023-01-02T14:46:04.505Z,7.78
2023-01-02T14:48:53.473Z,7.71
2023-01-02T14:51:32.408Z,7.65
2023-01-02T14:54:08.315Z,7.59
2023-01-02T14:56:38.408Z,7.54
2023-01-02T14:59:11.754Z,7.48
2023-01-02T15:01:42.562Z,7.42
2023-01-02T15:04:18.821Z,7.35
2023-01-02T15:06:52.286Z,7.24
2023-01-02T15:09:48.421Z,7.19
2023-01-02T15:13:01.517Z,7.07
2023-01-02T15:15:29.847Z,6.90
2023-01-02T15:18:12.138Z,6.82
2023-01-02T15:20:40.349Z,6.74
2023-01-02T15:23:21.383Z,6.64
2023-01-02T15:25:48.849Z,6.52
2023-01-02T15:28:32.805Z,6.49
2023-01-02T15:31:16.694Z,6.49
2023-01-02T15:33:51.042Z,6.47
2023-01-02T15:36:35.825Z,6.47
2023-01-02T15:39:08.493Z,6.46
2023-01-02T15:41:41.290Z,6.43
2023-01-02T15:44:29.694Z,6.33
2023-01-02T15:46:58.266Z,6.31
2023-01-02T15:49:25.884Z,6.29
2023-01-02T15:51:55.555Z,6.26
2023-01-02T15:54:22.697Z,6.20
2023-01-02T15:56:51.645Z,6.15
2023-01-02T15:59:24.334Z,6.12
2023-01-02T16:01:52.973Z,6.09
2023-01-02T16:04:32.138Z,6.07
2023-01-02T16:07:13.384Z,5.98
2023-01-02T16:09:41.166Z,5.92
2023-01-02T16:12:22.163Z,5.88
2023-01-02T16:14:56.103Z,5.86
2023-01-02T16:17:27.610Z,5.81
2023-01-02T16:19:58.930Z,5.77
2023-01-02T16:23:10.274Z,5.74
2023-01-02T16:25:45.075Z,5.69
2023-01-02T16:28:35.965Z,5.62
2023-01-02T16:31:13.758Z,5.58
2023-01-02T16:33:42.339Z,5.54
2023-01-02T16:36:15.553Z,5.52
2023-01-02T16:39:00.641Z,5.56
2023-01-02T16:41:42.574Z,5.56
2023-01-02T16:44:13.005Z,5.59
2023-01-02T16:46:50.830Z,5.60
2023-01-02T16:49:23.070Z,5.64
2023-01-02T16:51:54.645Z,5.68
2023-01-02T16:54:21.818Z,5.68
2023-01-02T16:56:49.995Z,5.66
2023-01-02T16:59:17.335Z,5.64
2023-01-02T17:01:44.533Z,5.64
2023-01-02T17:04:15.840Z,5.66
2023-01-02T17:06:43.303Z,5.66
2023-01-02T17:09:10.185Z,5.68
2023-01-02T17:11:37.782Z,5.65
2023-01-02T17:14:04.943Z,5.66
2023-01-02T17:16:32.233Z,5.63
2023-01-02T17:18:59.738Z,5.60
2023-01-02T17:21:32.498Z,5.54
2023-01-02T17:24:00.136Z,5.52
2023-01-02T17:26:27.218Z,5.48
2023-01-02T17:28:54.295Z,5.45
2023-01-02T17:31:25.779Z,5.39
2023-01-02T17:33:53.398Z,5.36
2023-01-02T17:36:20.494Z,5.35
2023-01-02T17:38:47.770Z,5.35
2023-01-02T17:41:14.909Z,5.37
2023-01-02T17:44:01.837Z,5.39
2023-01-02T17:49:17.671Z,5.41
2023-01-02T17:51:44.851Z,5.42
2023-01-02T17:54:12.895Z,5.43
2023-01-02T17:56:42.151Z,5.42
2023-01-02T17:59:09.424Z,5.41
2023-01-02T18:01:36.538Z,5.41
2023-01-02T18:04:03.762Z,5.40
2023-01-02T18:06:30.769Z,5.40
2023-01-02T18:08:57.883Z,5.38
2023-01-02T18:11:26.188Z,5.39
2023-01-02T18:13:56.127Z,5.39
2023-01-02T18:16:29.507Z,5.39
2023-01-02T18:18:56.682Z,5.37
2023-01-02T18:21:28.830Z,5.35
2023-01-02T18:24:02.356Z,5.25
2023-01-02T18:26:30.772Z,5.17
2023-01-02T18:29:07.498Z,5.11
2023-01-02T18:31:43.044Z,5.07
2023-01-02T18:34:46.380Z,5.06
2023-01-02T18:37:03.864Z,5.04
2023-01-02T18:39:42.571Z,4.99
2023-01-02T18:42:09.791Z,4.98
2023-01-02T18:44:37.946Z,4.99
2023-01-02T18:47:32.494Z,5.01
2023-01-02T18:50:34.805Z,5.02
2023-01-02T18:53:14.912Z,5.02
2023-01-02T18:55:42.569Z,5.02
2023-01-02T18:58:36.706Z,5.05
2023-01-02T19:01:25.023Z,5.11
2023-01-02T19:03:56.961Z,5.16
2023-01-02T19:06:27.131Z,5.24
2023-01-02T19:09:01.438Z,5.30
2023-01-02T19:11:52.914Z,5.34
2023-01-02T19:14:24.337Z,5.40
2023-01-02T19:17:09.527Z,5.45
2023-01-02T19:19:40.579Z,5.53
2023-01-02T19:22:16.319Z,5.60
2023-01-02T19:24:44.178Z,5.65
2023-01-02T19:27:34.348Z,5.69
2023-01-02T19:30:32.306Z,5.77
2023-01-02T19:32:59.521Z,5.78
2023-01-02T19:35:37.039Z,5.82
2023-01-02T19:38:23.743Z,5.82
2023-01-02T19:40:51.091Z,5.82
2023-01-02T19:43:20.798Z,5.82
2023-01-02T19:45:48.729Z,5.80
2023-01-02T19:48:18.253Z,5.76
2023-01-02T19:50:46.607Z,5.70
2023-01-02T19:53:13.552Z,5.63
2023-01-02T19:55:41.201Z,5.55
2023-01-02T19:58:08.626Z,5.46
2023-01-02T20:00:35.811Z,5.36
2023-01-02T20:03:03.072Z,5.39
2023-01-02T20:05:30.370Z,5.38
2023-01-02T20:08:00.273Z,5.36
2023-01-02T20:10:27.559Z,5.32
2023-01-02T20:12:54.804Z,5.27
2023-01-02T20:15:24.792Z,5.22
2023-01-02T20:17:53.231Z,5.19
2023-01-02T20:20:24.216Z,5.19
2023-01-02T20:22:52.240Z,5.19
2023-01-02T20:25:24.427Z,5.16
2023-01-02T20:27:53.511Z,5.15
2023-01-02T20:30:24.478Z,5.15
2023-01-02T20:32:52.958Z,5.17
2023-01-02T20:35:20.229Z,5.17
2023-01-02T20:37:48.098Z,5.16
2023-01-02T20:40:18.280Z,5.14
2023-01-02T20:42:45.510Z,5.12
2023-01-02T20:45:13.421Z,5.09
2023-01-02T20:47:40.531Z,5.09
2023-01-02T20:50:08.269Z,5.08
2023-01-02T20:52:35.473Z,5.06
2023-01-02T20:55:03.446Z,5.03
2023-01-02T20:57:30.746Z,4.98
2023-01-02T20:59:57.897Z,4.93
2023-01-02T21:02:25.244Z,4.90
2023-01-02T21:04:52.665Z,4.85
2023-01-02T21:07:21.543Z,4.82
2023-01-02T21:09:48.604Z,4.81
2023-01-02T21:12:34.132Z,4.84
2023-01-02T21:15:01.205Z,4.82
2023-01-02T21:17:28.419Z,4.80
2023-01-02T21:19:55.604Z,4.78
2023-01-02T21:22:22.611Z,4.75
2023-01-02T21:24:49.692Z,4.73
2023-01-02T21:27:19.568Z,4.74
2023-01-02T21:29:46.753Z,4.70
2023-01-02T21:32:13.892Z,4.65
2023-01-02T21:34:41.045Z,4.61
2023-01-02T21:37:08.577Z,4.56
2023-01-02T21:39:35.884Z,4.53
2023-01-02T21:42:18.408Z,4.52
2023-01-02T21:44:47.536Z,4.46
2023-01-02T21:47:16.501Z,4.45
2023-01-02T21:49:44.547Z,4.42
2023-01-02T21:52:11.724Z,4.37
2023-01-02T21:54:39.225Z,4.32
2023-01-02T21:57:06.559Z,4.25
2023-01-02T21:59:34.172Z,4.22
2023-01-02T22:02:04.019Z,4.18
2023-01-02T22:04:34.880Z,4.19
2023-01-02T22:07:30.557Z,4.16
2023-01-02T22:09:49.037Z,4.14
2023-01-02T22:12:16.130Z,4.14
2023-01-02T22:14:43.303Z,4.14
2023-01-02T22:17:11.385Z,4.14
2023-01-02T22:19:39.968Z,4.16
2023-01-02T22:22:07.542Z,4.22
2023-01-02T22:24:40.651Z,4.24
2023-01-02T22:27:12.971Z,4.27
2023-01-02T22:30:18.667Z,4.35
2023-01-02T22:32:28.840Z,4.32
2023-01-02T22:34:56.038Z,4.36
2023-01-02T22:37:25.104Z,4.34
2023-01-02T22:39:52.391Z,4.33
2023-01-02T22:45:46.275Z,4.37
2023-01-02T22:48:39.463Z,4.34
2023-01-02T22:51:08.570Z,4.36
2023-01-02T22:53:38.423Z,4.30
2023-01-02T22:56:15.226Z,4.33
2023-01-02T22:58:42.808Z,4.32
2023-01-02T23:01:19.773Z,4.36
2023-01-02T23:03:49.871Z,4.38
2023-01-02T23:06:21.958Z,4.36
2023-01-02T23:08:50.638Z,4.31
2023-01-02T23:11:19.063Z,4.25
2023-01-02T23:13:50.207Z,4.21
2023-01-02T23:16:38.840Z,4.19
2023-01-02T23:19:15.669Z,4.19
2023-01-02T23:21:45.078Z,4.17
2023-01-02T23:24:13.961Z,4.14
2023-01-02T23:26:44.449Z,4.12
2023-01-02T23:29:12.655Z,4.11
2023-01-02T23:31:43.023Z,4.08
2023-01-02T23:34:12.333Z,4.05
2023-01-02T23:36:40.948Z,4.06
2023-01-02T23:39:11.862Z,4.06
2023-01-02T23:41:40.385Z,4.05
2023-01-02T23:44:08.006Z,4.03
2023-01-02T23:46:35.881Z,4.06
2023-01-02T23:49:03.907Z,4.07
2023-01-02T23:51:31.920Z,4.07
2023-01-02T23:53:59.736Z,4.10
2023-01-02T23:56:30.661Z,4.10
2023-01-02T23:58:59.773Z,4.10
